sensor_id;sensor_type;location;lat;lon;timestamp;P1;durP1;ratioP1;P2;durP2;ratioP2
62580;SDS011;48640;48.770;9.148;2022-07-09T00:01:21;2.83;;;1.30;;
62580;SDS011;48640;48.770;9.148;2022-07-09T00:03:47;3.78;;;1.20;;
62580;SDS011;48640;48.770;9.148;2022-07-09T00:06:17;5.28;;;1.65;;
62580;SDS011;48640;48.770;9.148;2022-07-09T00:08:44;4.50;;;1.73;;
62580;SDS011;48640;48.770;9.148;2022-07-09T00:11:11;2.85;;;1.48;;
62580;SDS011;48640;48.770;9.148;2022-07-09T00:13:38;3.92;;;1.52;;
62580;SDS011;48640;48.770;9.148;2022-07-09T00:16:05;4.30;;;1.90;;
62580;SDS011;48640;48.770;9.148;2022-07-09T00:18:32;4.85;;;1.60;;
62580;SDS011;48640;48.770;9.148;2022-07-09T00:20:58;3.75;;;1.85;;
62580;SDS011;48640;48.770;9.148;2022-07-09T00:23:27;5.00;;;1.73;;
62580;SDS011;48640;48.770;9.148;2022-07-09T00:25:54;4.65;;;1.60;;
62580;SDS011;48640;48.770;9.148;2022-07-09T00:28:21;4.05;;;1.50;;
62580;SDS011;48640;48.770;9.148;2022-07-09T00:30:47;3.60;;;1.65;;
62580;SDS011;48640;48.770;9.148;2022-07-09T00:33:14;3.00;;;1.45;;
62580;SDS011;48640;48.770;9.148;2022-07-09T00:35:41;3.05;;;1.30;;
62580;SDS011;48640;48.770;9.148;2022-07-09T00:38:08;3.50;;;1.38;;
62580;SDS011;48640;48.770;9.148;2022-07-09T00:40:36;3.67;;;1.30;;
62580;SDS011;48640;48.770;9.148;2022-07-09T00:43:14;3.78;;;1.48;;
62580;SDS011;48640;48.770;9.148;2022-07-09T00:45:41;3.65;;;1.23;;
62580;SDS011;48640;48.770;9.148;2022-07-09T00:48:08;3.22;;;1.52;;
62580;SDS011;48640;48.770;9.148;2022-07-09T00:50:35;6.65;;;1.50;;
62580;SDS011;48640;48.770;9.148;2022-07-09T00:53:02;3.03;;;1.50;;
62580;SDS011;48640;48.770;9.148;2022-07-09T00:55:29;9.43;;;3.42;;
62580;SDS011;48640;48.770;9.148;2022-07-09T00:57:57;5.25;;;2.30;;
62580;SDS011;48640;48.770;9.148;2022-07-09T01:00:24;3.63;;;1.40;;
62580;SDS011;48640;48.770;9.148;2022-07-09T01:02:51;3.90;;;1.38;;
62580;SDS011;48640;48.770;9.148;2022-07-09T01:05:17;4.05;;;1.50;;
62580;SDS011;48640;48.770;9.148;2022-07-09T01:07:44;4.10;;;1.58;;
62580;SDS011;48640;48.770;9.148;2022-07-09T01:10:11;3.75;;;1.63;;
62580;SDS011;48640;48.770;9.148;2022-07-09T01:12:38;3.97;;;1.92;;
62580;SDS011;48640;48.770;9.148;2022-07-09T01:15:07;4.43;;;1.30;;
62580;SDS011;48640;48.770;9.148;2022-07-09T01:17:37;5.22;;;2.33;;
62580;SDS011;48640;48.770;9.148;2022-07-09T01:20:04;5.10;;;1.35;;
62580;SDS011;48640;48.770;9.148;2022-07-09T01:22:33;3.92;;;1.65;;
62580;SDS011;48640;48.770;9.148;2022-07-09T01:25:00;3.58;;;1.35;;
62580;SDS011;48640;48.770;9.148;2022-07-09T01:27:28;5.00;;;1.58;;
62580;SDS011;48640;48.770;9.148;2022-07-09T01:29:55;4.05;;;1.83;;
62580;SDS011;48640;48.770;9.148;2022-07-09T01:32:22;3.65;;;1.60;;
62580;SDS011;48640;48.770;9.148;2022-07-09T01:34:49;5.60;;;1.80;;
62580;SDS011;48640;48.770;9.148;2022-07-09T01:37:16;2.95;;;1.40;;
62580;SDS011;48640;48.770;9.148;2022-07-09T01:39:44;5.30;;;1.73;;
62580;SDS011;48640;48.770;9.148;2022-07-09T01:42:16;3.63;;;1.60;;
62580;SDS011;48640;48.770;9.148;2022-07-09T01:44:43;4.80;;;1.42;;
62580;SDS011;48640;48.770;9.148;2022-07-09T01:47:10;4.63;;;1.48;;
62580;SDS011;48640;48.770;9.148;2022-07-09T01:49:37;4.65;;;1.48;;
62580;SDS011;48640;48.770;9.148;2022-07-09T01:52:04;3.47;;;1.60;;
62580;SDS011;48640;48.770;9.148;2022-07-09T01:54:31;4.25;;;1.75;;
62580;SDS011;48640;48.770;9.148;2022-07-09T01:57:00;4.57;;;1.77;;
62580;SDS011;48640;48.770;9.148;2022-07-09T01:59:26;4.47;;;1.80;;
62580;SDS011;48640;48.770;9.148;2022-07-09T02:01:53;4.63;;;1.85;;
62580;SDS011;48640;48.770;9.148;2022-07-09T02:04:20;3.75;;;1.75;;
62580;SDS011;48640;48.770;9.148;2022-07-09T02:06:47;5.00;;;1.83;;
62580;SDS011;48640;48.770;9.148;2022-07-09T02:09:14;5.13;;;1.55;;
62580;SDS011;48640;48.770;9.148;2022-07-09T02:11:40;4.50;;;1.73;;
62580;SDS011;48640;48.770;9.148;2022-07-09T02:14:09;4.25;;;2.03;;
62580;SDS011;48640;48.770;9.148;2022-07-09T02:16:35;4.63;;;1.85;;
62580;SDS011;48640;48.770;9.148;2022-07-09T02:19:02;6.53;;;2.85;;
62580;SDS011;48640;48.770;9.148;2022-07-09T02:21:29;3.55;;;1.85;;
62580;SDS011;48640;48.770;9.148;2022-07-09T02:23:56;8.52;;;2.42;;
62580;SDS011;48640;48.770;9.148;2022-07-09T02:26:23;4.28;;;1.90;;
62580;SDS011;48640;48.770;9.148;2022-07-09T02:28:51;4.75;;;1.60;;
62580;SDS011;48640;48.770;9.148;2022-07-09T02:31:19;4.85;;;1.70;;
62580;SDS011;48640;48.770;9.148;2022-07-09T02:33:46;4.75;;;1.80;;
62580;SDS011;48640;48.770;9.148;2022-07-09T02:36:13;4.32;;;1.70;;
62580;SDS011;48640;48.770;9.148;2022-07-09T02:38:39;3.92;;;1.48;;
62580;SDS011;48640;48.770;9.148;2022-07-09T02:41:06;4.22;;;1.70;;
62580;SDS011;48640;48.770;9.148;2022-07-09T02:43:33;3.70;;;1.70;;
62580;SDS011;48640;48.770;9.148;2022-07-09T02:46:00;3.20;;;1.83;;
62580;SDS011;48640;48.770;9.148;2022-07-09T02:48:30;4.07;;;1.63;;
62580;SDS011;48640;48.770;9.148;2022-07-09T02:50:57;4.32;;;1.90;;
62580;SDS011;48640;48.770;9.148;2022-07-09T02:53:25;5.68;;;2.08;;
62580;SDS011;48640;48.770;9.148;2022-07-09T02:55:52;12.77;;;3.03;;
62580;SDS011;48640;48.770;9.148;2022-07-09T02:58:19;5.03;;;1.50;;
62580;SDS011;48640;48.770;9.148;2022-07-09T03:00:46;5.30;;;1.88;;
62580;SDS011;48640;48.770;9.148;2022-07-09T03:03:13;3.78;;;1.75;;
62580;SDS011;48640;48.770;9.148;2022-07-09T03:05:42;3.47;;;1.55;;
62580;SDS011;48640;48.770;9.148;2022-07-09T03:08:09;3.35;;;1.70;;
62580;SDS011;48640;48.770;9.148;2022-07-09T03:10:35;4.93;;;1.90;;
62580;SDS011;48640;48.770;9.148;2022-07-09T03:13:02;5.35;;;2.20;;
62580;SDS011;48640;48.770;9.148;2022-07-09T03:15:29;4.25;;;1.60;;
62580;SDS011;48640;48.770;9.148;2022-07-09T03:17:56;4.10;;;1.70;;
62580;SDS011;48640;48.770;9.148;2022-07-09T03:20:23;5.20;;;2.40;;
62580;SDS011;48640;48.770;9.148;2022-07-09T03:22:51;5.22;;;2.00;;
62580;SDS011;48640;48.770;9.148;2022-07-09T03:25:19;5.97;;;2.10;;
62580;SDS011;48640;48.770;9.148;2022-07-09T03:27:46;6.53;;;2.03;;
62580;SDS011;48640;48.770;9.148;2022-07-09T03:30:13;4.55;;;1.92;;
62580;SDS011;48640;48.770;9.148;2022-07-09T03:32:39;5.18;;;1.85;;
62580;SDS011;48640;48.770;9.148;2022-07-09T03:35:06;3.80;;;1.75;;
62580;SDS011;48640;48.770;9.148;2022-07-09T03:37:33;6.32;;;2.22;;
62580;SDS011;48640;48.770;9.148;2022-07-09T03:40:02;4.22;;;1.85;;
62580;SDS011;48640;48.770;9.148;2022-07-09T03:42:29;5.07;;;2.10;;
62580;SDS011;48640;48.770;9.148;2022-07-09T03:44:56;3.65;;;1.90;;
62580;SDS011;48640;48.770;9.148;2022-07-09T03:47:23;5.28;;;1.80;;
62580;SDS011;48640;48.770;9.148;2022-07-09T03:49:50;5.15;;;1.90;;
62580;SDS011;48640;48.770;9.148;2022-07-09T03:52:17;8.20;;;2.08;;
62580;SDS011;48640;48.770;9.148;2022-07-09T03:54:44;5.03;;;2.05;;
62580;SDS011;48640;48.770;9.148;2022-07-09T03:57:12;3.85;;;2.00;;
62580;SDS011;48640;48.770;9.148;2022-07-09T03:59:39;3.17;;;1.92;;
62580;SDS011;48640;48.770;9.148;2022-07-09T04:02:05;4.45;;;2.10;;
62580;SDS011;48640;48.770;9.148;2022-07-09T04:04:32;6.72;;;2.38;;
62580;SDS011;48640;48.770;9.148;2022-07-09T04:06:59;4.50;;;2.10;;
62580;SDS011;48640;48.770;9.148;2022-07-09T04:09:26;3.83;;;2.08;;
62580;SDS011;48640;48.770;9.148;2022-07-09T04:11:53;4.10;;;1.80;;
62580;SDS011;48640;48.770;9.148;2022-07-09T04:14:21;5.00;;;2.28;;
62580;SDS011;48640;48.770;9.148;2022-07-09T04:16:48;5.57;;;2.40;;
62580;SDS011;48640;48.770;9.148;2022-07-09T04:19:15;5.10;;;2.00;;
62580;SDS011;48640;48.770;9.148;2022-07-09T04:21:41;4.22;;;2.10;;
62580;SDS011;48640;48.770;9.148;2022-07-09T04:24:08;6.55;;;2.33;;
62580;SDS011;48640;48.770;9.148;2022-07-09T04:26:35;4.07;;;1.90;;
62580;SDS011;48640;48.770;9.148;2022-07-09T04:29:02;4.47;;;1.95;;
62580;SDS011;48640;48.770;9.148;2022-07-09T04:31:30;3.70;;;1.70;;
62580;SDS011;48640;48.770;9.148;2022-07-09T04:33:57;5.30;;;2.15;;
62580;SDS011;48640;48.770;9.148;2022-07-09T04:36:25;5.05;;;2.22;;
62580;SDS011;48640;48.770;9.148;2022-07-09T04:38:53;5.55;;;2.40;;
62580;SDS011;48640;48.770;9.148;2022-07-09T04:41:20;5.75;;;2.63;;
62580;SDS011;48640;48.770;9.148;2022-07-09T04:43:47;3.80;;;2.25;;
62580;SDS011;48640;48.770;9.148;2022-07-09T04:46:14;4.78;;;2.45;;
62580;SDS011;48640;48.770;9.148;2022-07-09T04:48:42;5.30;;;2.25;;
62580;SDS011;48640;48.770;9.148;2022-07-09T04:51:09;5.80;;;2.30;;
62580;SDS011;48640;48.770;9.148;2022-07-09T04:53:36;5.38;;;2.70;;
62580;SDS011;48640;48.770;9.148;2022-07-09T04:56:03;3.45;;;2.15;;
62580;SDS011;48640;48.770;9.148;2022-07-09T04:58:31;4.32;;;2.40;;
62580;SDS011;48640;48.770;9.148;2022-07-09T05:00:58;6.00;;;2.75;;
62580;SDS011;48640;48.770;9.148;2022-07-09T05:03:25;5.72;;;2.30;;
62580;SDS011;48640;48.770;9.148;2022-07-09T05:05:53;5.13;;;2.63;;
62580;SDS011;48640;48.770;9.148;2022-07-09T05:08:20;5.05;;;3.20;;
62580;SDS011;48640;48.770;9.148;2022-07-09T05:10:47;6.35;;;2.22;;
62580;SDS011;48640;48.770;9.148;2022-07-09T05:13:14;7.40;;;2.83;;
62580;SDS011;48640;48.770;9.148;2022-07-09T05:15:40;6.28;;;2.30;;
62580;SDS011;48640;48.770;9.148;2022-07-09T05:18:07;5.32;;;1.98;;
62580;SDS011;48640;48.770;9.148;2022-07-09T05:20:34;5.47;;;2.35;;
62580;SDS011;48640;48.770;9.148;2022-07-09T05:23:02;12.45;;;3.47;;
62580;SDS011;48640;48.770;9.148;2022-07-09T05:25:29;6.00;;;2.85;;
62580;SDS011;48640;48.770;9.148;2022-07-09T05:27:56;4.05;;;2.05;;
62580;SDS011;48640;48.770;9.148;2022-07-09T05:30:22;4.65;;;2.20;;
62580;SDS011;48640;48.770;9.148;2022-07-09T05:32:49;5.43;;;2.83;;
62580;SDS011;48640;48.770;9.148;2022-07-09T05:35:17;5.82;;;2.25;;
62580;SDS011;48640;48.770;9.148;2022-07-09T05:37:44;5.10;;;2.67;;
62580;SDS011;48640;48.770;9.148;2022-07-09T05:40:12;7.30;;;2.70;;
62580;SDS011;48640;48.770;9.148;2022-07-09T05:42:39;5.57;;;2.05;;
62580;SDS011;48640;48.770;9.148;2022-07-09T05:45:06;6.45;;;2.75;;
62580;SDS011;48640;48.770;9.148;2022-07-09T05:47:34;4.65;;;1.98;;
62580;SDS011;48640;48.770;9.148;2022-07-09T05:50:00;6.80;;;2.13;;
62580;SDS011;48640;48.770;9.148;2022-07-09T05:52:27;4.55;;;2.20;;
62580;SDS011;48640;48.770;9.148;2022-07-09T05:54:54;7.45;;;2.38;;
62580;SDS011;48640;48.770;9.148;2022-07-09T05:57:22;5.88;;;2.70;;
62580;SDS011;48640;48.770;9.148;2022-07-09T05:59:49;3.60;;;1.50;;
62580;SDS011;48640;48.770;9.148;2022-07-09T06:02:16;4.80;;;2.00;;
62580;SDS011;48640;48.770;9.148;2022-07-09T06:04:44;5.32;;;1.90;;
62580;SDS011;48640;48.770;9.148;2022-07-09T06:07:11;6.20;;;1.83;;
62580;SDS011;48640;48.770;9.148;2022-07-09T06:09:38;4.05;;;1.83;;
62580;SDS011;48640;48.770;9.148;2022-07-09T06:12:05;3.63;;;2.15;;
62580;SDS011;48640;48.770;9.148;2022-07-09T06:14:33;5.82;;;2.00;;
62580;SDS011;48640;48.770;9.148;2022-07-09T06:17:00;5.88;;;1.83;;
62580;SDS011;48640;48.770;9.148;2022-07-09T06:19:31;8.70;;;2.50;;
62580;SDS011;48640;48.770;9.148;2022-07-09T06:21:58;4.95;;;1.88;;
62580;SDS011;48640;48.770;9.148;2022-07-09T06:24:25;4.82;;;1.95;;
62580;SDS011;48640;48.770;9.148;2022-07-09T06:26:51;4.93;;;2.15;;
62580;SDS011;48640;48.770;9.148;2022-07-09T06:29:18;5.80;;;1.90;;
62580;SDS011;48640;48.770;9.148;2022-07-09T06:31:47;5.80;;;2.47;;
62580;SDS011;48640;48.770;9.148;2022-07-09T06:34:14;7.43;;;2.00;;
62580;SDS011;48640;48.770;9.148;2022-07-09T06:36:41;6.32;;;1.95;;
62580;SDS011;48640;48.770;9.148;2022-07-09T06:39:09;3.55;;;1.90;;
62580;SDS011;48640;48.770;9.148;2022-07-09T06:41:53;6.63;;;2.25;;
62580;SDS011;48640;48.770;9.148;2022-07-09T06:44:20;3.80;;;1.70;;
62580;SDS011;48640;48.770;9.148;2022-07-09T06:46:48;4.25;;;1.90;;
62580;SDS011;48640;48.770;9.148;2022-07-09T06:49:15;4.35;;;1.60;;
62580;SDS011;48640;48.770;9.148;2022-07-09T06:51:41;5.63;;;1.80;;
62580;SDS011;48640;48.770;9.148;2022-07-09T06:54:08;4.03;;;1.77;;
62580;SDS011;48640;48.770;9.148;2022-07-09T06:56:35;2.70;;;1.67;;
62580;SDS011;48640;48.770;9.148;2022-07-09T06:59:02;6.25;;;1.70;;
62580;SDS011;48640;48.770;9.148;2022-07-09T07:01:29;5.45;;;2.25;;
62580;SDS011;48640;48.770;9.148;2022-07-09T07:03:57;4.40;;;1.80;;
62580;SDS011;48640;48.770;9.148;2022-07-09T07:06:24;3.60;;;1.60;;
62580;SDS011;48640;48.770;9.148;2022-07-09T07:08:50;5.60;;;1.90;;
62580;SDS011;48640;48.770;9.148;2022-07-09T07:11:18;2.88;;;1.50;;
62580;SDS011;48640;48.770;9.148;2022-07-09T07:13:44;8.70;;;2.22;;
62580;SDS011;48640;48.770;9.148;2022-07-09T07:16:11;7.38;;;1.77;;
62580;SDS011;48640;48.770;9.148;2022-07-09T07:18:38;4.95;;;1.48;;
62580;SDS011;48640;48.770;9.148;2022-07-09T07:21:06;5.20;;;1.70;;
62580;SDS011;48640;48.770;9.148;2022-07-09T07:23:33;4.88;;;1.83;;
62580;SDS011;48640;48.770;9.148;2022-07-09T07:26:00;4.82;;;1.95;;
62580;SDS011;48640;48.770;9.148;2022-07-09T07:28:27;2.83;;;1.40;;
62580;SDS011;48640;48.770;9.148;2022-07-09T07:30:54;4.63;;;1.60;;
62580;SDS011;48640;48.770;9.148;2022-07-09T07:33:21;4.32;;;1.60;;
62580;SDS011;48640;48.770;9.148;2022-07-09T07:35:47;4.55;;;1.63;;
62580;SDS011;48640;48.770;9.148;2022-07-09T07:38:16;6.72;;;1.63;;
62580;SDS011;48640;48.770;9.148;2022-07-09T07:40:43;4.95;;;1.45;;
62580;SDS011;48640;48.770;9.148;2022-07-09T07:43:10;5.28;;;1.70;;
62580;SDS011;48640;48.770;9.148;2022-07-09T07:45:37;6.57;;;1.83;;
62580;SDS011;48640;48.770;9.148;2022-07-09T07:48:04;4.15;;;1.55;;
62580;SDS011;48640;48.770;9.148;2022-07-09T07:50:31;4.05;;;1.63;;
62580;SDS011;48640;48.770;9.148;2022-07-09T07:53:00;3.75;;;1.83;;
62580;SDS011;48640;48.770;9.148;2022-07-09T07:55:28;4.30;;;1.67;;
62580;SDS011;48640;48.770;9.148;2022-07-09T07:57:55;6.15;;;1.80;;
62580;SDS011;48640;48.770;9.148;2022-07-09T08:00:22;4.93;;;1.42;;
62580;SDS011;48640;48.770;9.148;2022-07-09T08:02:49;3.67;;;1.52;;
62580;SDS011;48640;48.770;9.148;2022-07-09T08:05:16;3.45;;;1.60;;
62580;SDS011;48640;48.770;9.148;2022-07-09T08:07:42;4.80;;;2.00;;
62580;SDS011;48640;48.770;9.148;2022-07-09T08:10:09;3.80;;;1.85;;
62580;SDS011;48640;48.770;9.148;2022-07-09T08:12:37;5.68;;;1.52;;
62580;SDS011;48640;48.770;9.148;2022-07-09T08:15:05;5.43;;;2.03;;
62580;SDS011;48640;48.770;9.148;2022-07-09T08:17:32;5.28;;;1.70;;
62580;SDS011;48640;48.770;9.148;2022-07-09T08:19:59;3.03;;;1.70;;
62580;SDS011;48640;48.770;9.148;2022-07-09T08:22:26;2.60;;;1.20;;
62580;SDS011;48640;48.770;9.148;2022-07-09T08:24:53;4.05;;;1.27;;
62580;SDS011;48640;48.770;9.148;2022-07-09T08:27:20;3.78;;;1.30;;
62580;SDS011;48640;48.770;9.148;2022-07-09T08:29:48;4.05;;;1.48;;
62580;SDS011;48640;48.770;9.148;2022-07-09T08:32:15;4.43;;;1.17;;
62580;SDS011;48640;48.770;9.148;2022-07-09T08:34:42;4.05;;;1.27;;
62580;SDS011;48640;48.770;9.148;2022-07-09T08:37:08;5.00;;;1.67;;
62580;SDS011;48640;48.770;9.148;2022-07-09T08:39:35;3.55;;;1.13;;
62580;SDS011;48640;48.770;9.148;2022-07-09T08:42:03;4.03;;;1.20;;
62580;SDS011;48640;48.770;9.148;2022-07-09T08:44:35;4.28;;;1.38;;
62580;SDS011;48640;48.770;9.148;2022-07-09T08:47:05;5.90;;;1.27;;
62580;SDS011;48640;48.770;9.148;2022-07-09T08:52:00;4.03;;;1.40;;
62580;SDS011;48640;48.770;9.148;2022-07-09T08:54:29;3.28;;;1.15;;
62580;SDS011;48640;48.770;9.148;2022-07-09T08:59:24;3.35;;;1.50;;
62580;SDS011;48640;48.770;9.148;2022-07-09T09:01:51;2.97;;;1.40;;
62580;SDS011;48640;48.770;9.148;2022-07-09T09:04:19;2.95;;;1.00;;
62580;SDS011;48640;48.770;9.148;2022-07-09T09:06:46;4.50;;;1.38;;
62580;SDS011;48640;48.770;9.148;2022-07-09T09:09:17;3.50;;;1.30;;
62580;SDS011;48640;48.770;9.148;2022-07-09T09:11:46;2.28;;;1.02;;
62580;SDS011;48640;48.770;9.148;2022-07-09T09:14:17;2.97;;;1.15;;
62580;SDS011;48640;48.770;9.148;2022-07-09T09:16:46;2.47;;;1.58;;
62580;SDS011;48640;48.770;9.148;2022-07-09T09:19:13;2.90;;;0.88;;
62580;SDS011;48640;48.770;9.148;2022-07-09T09:21:42;3.53;;;1.20;;
62580;SDS011;48640;48.770;9.148;2022-07-09T09:24:08;3.72;;;1.20;;
62580;SDS011;48640;48.770;9.148;2022-07-09T09:26:35;2.35;;;1.17;;
62580;SDS011;48640;48.770;9.148;2022-07-09T09:29:02;2.13;;;0.85;;
62580;SDS011;48640;48.770;9.148;2022-07-09T09:31:30;1.70;;;1.00;;
62580;SDS011;48640;48.770;9.148;2022-07-09T09:36:37;2.75;;;1.40;;
62580;SDS011;48640;48.770;9.148;2022-07-09T09:39:10;4.82;;;1.60;;
62580;SDS011;48640;48.770;9.148;2022-07-09T09:41:37;2.78;;;1.45;;
62580;SDS011;48640;48.770;9.148;2022-07-09T09:44:05;4.82;;;1.27;;
62580;SDS011;48640;48.770;9.148;2022-07-09T09:46:34;3.17;;;1.05;;
62580;SDS011;48640;48.770;9.148;2022-07-09T09:49:02;3.00;;;1.48;;
62580;SDS011;48640;48.770;9.148;2022-07-09T09:51:33;5.05;;;1.38;;
62580;SDS011;48640;48.770;9.148;2022-07-09T09:54:01;2.28;;;0.98;;
62580;SDS011;48640;48.770;9.148;2022-07-09T09:56:30;2.75;;;1.10;;
62580;SDS011;48640;48.770;9.148;2022-07-09T09:58:58;3.58;;;0.90;;
62580;SDS011;48640;48.770;9.148;2022-07-09T10:01:25;2.50;;;1.10;;
62580;SDS011;48640;48.770;9.148;2022-07-09T10:03:53;4.00;;;1.88;;
62580;SDS011;48640;48.770;9.148;2022-07-09T10:06:20;2.63;;;1.27;;
62580;SDS011;48640;48.770;9.148;2022-07-09T10:08:48;3.17;;;1.30;;
62580;SDS011;48640;48.770;9.148;2022-07-09T10:11:15;3.20;;;1.20;;
62580;SDS011;48640;48.770;9.148;2022-07-09T10:13:50;2.63;;;1.02;;
62580;SDS011;48640;48.770;9.148;2022-07-09T10:16:18;5.72;;;1.45;;
62580;SDS011;48640;48.770;9.148;2022-07-09T10:18:49;2.38;;;0.98;;
62580;SDS011;48640;48.770;9.148;2022-07-09T10:21:17;1.90;;;1.00;;
62580;SDS011;48640;48.770;9.148;2022-07-09T10:23:48;4.40;;;1.02;;
62580;SDS011;48640;48.770;9.148;2022-07-09T10:26:16;1.88;;;1.10;;
62580;SDS011;48640;48.770;9.148;2022-07-09T10:28:42;2.15;;;1.02;;
62580;SDS011;48640;48.770;9.148;2022-07-09T10:31:11;3.42;;;0.90;;
62580;SDS011;48640;48.770;9.148;2022-07-09T10:33:45;2.80;;;0.90;;
62580;SDS011;48640;48.770;9.148;2022-07-09T10:36:20;1.83;;;0.88;;
62580;SDS011;48640;48.770;9.148;2022-07-09T10:38:52;3.28;;;1.27;;
62580;SDS011;48640;48.770;9.148;2022-07-09T10:41:21;3.53;;;1.30;;
62580;SDS011;48640;48.770;9.148;2022-07-09T10:43:49;2.40;;;1.00;;
62580;SDS011;48640;48.770;9.148;2022-07-09T10:46:18;1.92;;;1.02;;
62580;SDS011;48640;48.770;9.148;2022-07-09T10:48:45;3.53;;;0.73;;
62580;SDS011;48640;48.770;9.148;2022-07-09T10:51:16;1.83;;;0.70;;
62580;SDS011;48640;48.770;9.148;2022-07-09T10:53:44;2.25;;;0.77;;
62580;SDS011;48640;48.770;9.148;2022-07-09T10:56:11;1.67;;;0.73;;
62580;SDS011;48640;48.770;9.148;2022-07-09T10:58:44;2.10;;;1.00;;
62580;SDS011;48640;48.770;9.148;2022-07-09T11:01:12;1.30;;;0.80;;
62580;SDS011;48640;48.770;9.148;2022-07-09T11:03:48;2.15;;;1.10;;
62580;SDS011;48640;48.770;9.148;2022-07-09T11:06:16;6.20;;;1.20;;
62580;SDS011;48640;48.770;9.148;2022-07-09T11:08:43;2.20;;;0.95;;
62580;SDS011;48640;48.770;9.148;2022-07-09T11:11:10;5.22;;;0.93;;
62580;SDS011;48640;48.770;9.148;2022-07-09T11:13:37;2.38;;;1.20;;
62580;SDS011;48640;48.770;9.148;2022-07-09T11:16:04;2.65;;;1.08;;
62580;SDS011;48640;48.770;9.148;2022-07-09T11:18:32;4.20;;;1.40;;
62580;SDS011;48640;48.770;9.148;2022-07-09T11:20:59;4.88;;;1.15;;
62580;SDS011;48640;48.770;9.148;2022-07-09T11:23:26;2.40;;;1.10;;
62580;SDS011;48640;48.770;9.148;2022-07-09T11:25:53;3.83;;;1.00;;
62580;SDS011;48640;48.770;9.148;2022-07-09T11:28:20;2.60;;;1.10;;
62580;SDS011;48640;48.770;9.148;2022-07-09T11:30:57;1.83;;;1.00;;
62580;SDS011;48640;48.770;9.148;2022-07-09T11:33:25;3.78;;;1.17;;
62580;SDS011;48640;48.770;9.148;2022-07-09T11:35:53;3.40;;;1.00;;
62580;SDS011;48640;48.770;9.148;2022-07-09T11:38:20;4.32;;;1.10;;
62580;SDS011;48640;48.770;9.148;2022-07-09T11:40:47;4.38;;;1.25;;
62580;SDS011;48640;48.770;9.148;2022-07-09T11:43:14;2.53;;;1.02;;
62580;SDS011;48640;48.770;9.148;2022-07-09T11:45:50;3.97;;;1.13;;
62580;SDS011;48640;48.770;9.148;2022-07-09T11:48:19;4.10;;;1.70;;
62580;SDS011;48640;48.770;9.148;2022-07-09T11:50:46;2.22;;;1.00;;
62580;SDS011;48640;48.770;9.148;2022-07-09T11:53:21;1.10;;;0.80;;
62580;SDS011;48640;48.770;9.148;2022-07-09T11:55:57;3.88;;;2.10;;
62580;SDS011;48640;48.770;9.148;2022-07-09T11:58:25;5.07;;;1.10;;
62580;SDS011;48640;48.770;9.148;2022-07-09T12:00:52;2.35;;;1.13;;
62580;SDS011;48640;48.770;9.148;2022-07-09T12:03:23;4.10;;;1.45;;
62580;SDS011;48640;48.770;9.148;2022-07-09T12:05:50;4.00;;;0.82;;
62580;SDS011;48640;48.770;9.148;2022-07-09T12:08:26;2.83;;;0.80;;
62580;SDS011;48640;48.770;9.148;2022-07-09T12:10:55;2.45;;;1.55;;
62580;SDS011;48640;48.770;9.148;2022-07-09T12:13:21;1.58;;;0.82;;
62580;SDS011;48640;48.770;9.148;2022-07-09T12:15:48;2.33;;;1.15;;
62580;SDS011;48640;48.770;9.148;2022-07-09T12:18:15;2.05;;;0.88;;
62580;SDS011;48640;48.770;9.148;2022-07-09T12:20:42;3.03;;;1.10;;
62580;SDS011;48640;48.770;9.148;2022-07-09T12:23:09;2.13;;;1.10;;
62580;SDS011;48640;48.770;9.148;2022-07-09T12:25:37;4.00;;;1.13;;
62580;SDS011;48640;48.770;9.148;2022-07-09T12:28:05;4.43;;;1.70;;
62580;SDS011;48640;48.770;9.148;2022-07-09T12:30:32;5.22;;;1.42;;
62580;SDS011;48640;48.770;9.148;2022-07-09T12:32:59;2.40;;;0.93;;
62580;SDS011;48640;48.770;9.148;2022-07-09T12:35:26;2.25;;;0.93;;
62580;SDS011;48640;48.770;9.148;2022-07-09T12:37:53;2.15;;;0.77;;
62580;SDS011;48640;48.770;9.148;2022-07-09T12:40:21;2.20;;;1.20;;
62580;SDS011;48640;48.770;9.148;2022-07-09T12:42:49;2.90;;;0.95;;
62580;SDS011;48640;48.770;9.148;2022-07-09T12:45:16;3.95;;;1.30;;
62580;SDS011;48640;48.770;9.148;2022-07-09T12:47:42;3.22;;;1.38;;
62580;SDS011;48640;48.770;9.148;2022-07-09T12:50:09;2.20;;;1.00;;
62580;SDS011;48640;48.770;9.148;2022-07-09T12:52:36;2.78;;;1.17;;
62580;SDS011;48640;48.770;9.148;2022-07-09T12:55:04;1.88;;;0.80;;
62580;SDS011;48640;48.770;9.148;2022-07-09T12:57:31;2.40;;;1.10;;
62580;SDS011;48640;48.770;9.148;2022-07-09T12:59:59;3.00;;;1.00;;
62580;SDS011;48640;48.770;9.148;2022-07-09T13:02:27;3.83;;;1.20;;
62580;SDS011;48640;48.770;9.148;2022-07-09T13:04:54;2.30;;;0.90;;
62580;SDS011;48640;48.770;9.148;2022-07-09T13:07:21;2.35;;;0.93;;
62580;SDS011;48640;48.770;9.148;2022-07-09T13:09:48;3.42;;;0.93;;
62580;SDS011;48640;48.770;9.148;2022-07-09T13:12:15;5.18;;;1.00;;
62580;SDS011;48640;48.770;9.148;2022-07-09T13:14:42;4.22;;;1.15;;
62580;SDS011;48640;48.770;9.148;2022-07-09T13:17:10;1.75;;;0.98;;
62580;SDS011;48640;48.770;9.148;2022-07-09T13:19:37;2.42;;;0.85;;
62580;SDS011;48640;48.770;9.148;2022-07-09T13:22:04;1.77;;;1.00;;
62580;SDS011;48640;48.770;9.148;2022-07-09T13:24:32;1.90;;;0.80;;
62580;SDS011;48640;48.770;9.148;2022-07-09T13:26:59;1.42;;;0.90;;
62580;SDS011;48640;48.770;9.148;2022-07-09T13:29:27;2.03;;;1.00;;
62580;SDS011;48640;48.770;9.148;2022-07-09T13:31:56;1.80;;;1.10;;
62580;SDS011;48640;48.770;9.148;2022-07-09T13:34:24;2.53;;;1.27;;
62580;SDS011;48640;48.770;9.148;2022-07-09T13:36:51;2.03;;;1.13;;
62580;SDS011;48640;48.770;9.148;2022-07-09T13:39:18;2.15;;;0.80;;
62580;SDS011;48640;48.770;9.148;2022-07-09T13:41:45;1.65;;;0.85;;
62580;SDS011;48640;48.770;9.148;2022-07-09T13:44:11;1.02;;;0.70;;
62580;SDS011;48640;48.770;9.148;2022-07-09T13:46:38;1.40;;;0.90;;
62580;SDS011;48640;48.770;9.148;2022-07-09T13:49:05;2.63;;;1.00;;
62580;SDS011;48640;48.770;9.148;2022-07-09T13:51:33;2.25;;;0.88;;
62580;SDS011;48640;48.770;9.148;2022-07-09T13:54:00;3.45;;;1.20;;
62580;SDS011;48640;48.770;9.148;2022-07-09T13:56:27;2.75;;;0.95;;
62580;SDS011;48640;48.770;9.148;2022-07-09T13:58:54;1.52;;;0.80;;
62580;SDS011;48640;48.770;9.148;2022-07-09T14:01:21;1.90;;;1.13;;
62580;SDS011;48640;48.770;9.148;2022-07-09T14:03:48;3.25;;;1.13;;
62580;SDS011;48640;48.770;9.148;2022-07-09T14:06:14;2.35;;;1.15;;
62580;SDS011;48640;48.770;9.148;2022-07-09T14:08:45;1.65;;;0.93;;
62580;SDS011;48640;48.770;9.148;2022-07-09T14:11:12;3.60;;;1.40;;
62580;SDS011;48640;48.770;9.148;2022-07-09T14:13:39;2.47;;;0.95;;
62580;SDS011;48640;48.770;9.148;2022-07-09T14:16:07;1.92;;;0.90;;
62580;SDS011;48640;48.770;9.148;2022-07-09T14:18:34;1.40;;;1.05;;
62580;SDS011;48640;48.770;9.148;2022-07-09T14:21:01;10.48;;;1.30;;
62580;SDS011;48640;48.770;9.148;2022-07-09T14:23:28;2.00;;;0.90;;
62580;SDS011;48640;48.770;9.148;2022-07-09T14:25:57;2.47;;;1.20;;
62580;SDS011;48640;48.770;9.148;2022-07-09T14:28:23;3.55;;;1.00;;
62580;SDS011;48640;48.770;9.148;2022-07-09T14:30:50;2.00;;;0.98;;
62580;SDS011;48640;48.770;9.148;2022-07-09T14:33:17;1.85;;;0.90;;
62580;SDS011;48640;48.770;9.148;2022-07-09T14:35:44;1.83;;;0.80;;
62580;SDS011;48640;48.770;9.148;2022-07-09T14:38:11;2.83;;;1.05;;
62580;SDS011;48640;48.770;9.148;2022-07-09T14:40:38;3.55;;;1.48;;
62580;SDS011;48640;48.770;9.148;2022-07-09T14:43:06;2.20;;;0.90;;
62580;SDS011;48640;48.770;9.148;2022-07-09T14:45:33;1.85;;;1.08;;
62580;SDS011;48640;48.770;9.148;2022-07-09T14:48:00;2.25;;;0.90;;
62580;SDS011;48640;48.770;9.148;2022-07-09T14:50:28;2.50;;;1.03;;
62580;SDS011;48640;48.770;9.148;2022-07-09T14:52:55;1.80;;;1.13;;
62580;SDS011;48640;48.770;9.148;2022-07-09T14:55:23;2.67;;;1.00;;
62580;SDS011;48640;48.770;9.148;2022-07-09T15:00:20;1.55;;;0.90;;